Time;durP1;ratioP1;P1;durP2;ratioP2;P2;SDS_P1;SDS_P2;PMS_P1;PMS_P2;Temp;Humidity;BMP_temperature;BMP_pressure;BME280_temperature;BME280_humidity;BME280_pressure;Samples;Min_cycle;Max_cycle;Signal;HPM_P1;HPM_P2
2023/01/26 00:01:33;;;;;;;;;54.50;30.25;;;;;5.27;100.00;102294.97;5035483;28;51290;-73
2023/01/26 00:03:59;;;;;;;;;54.00;37.25;;;;;5.26;100.00;102287.94;5015306;28;52638;-72
2023/01/26 00:06:25;;;;;;;;;47.75;33.75;;;;;5.28;100.00;102280.22;5045108;28;54122;-72
2023/01/26 00:08:52;;;;;;;;;50.50;35.00;;;;;5.32;100.00;102277.81;5015318;28;45629;-73
2023/01/26 00:11:23;;;;;;;;;48.50;34.00;;;;;5.30;100.00;102263.75;5019501;28;45435;-71
2023/01/26 00:13:52;;;;;;;;;48.75;34.25;;;;;5.33;100.00;102263.94;5035957;28;45505;-73
2023/01/26 00:16:17;;;;;;;;;61.00;33.50;;;;;5.32;100.00;102264.72;5036102;28;45551;-72
2023/01/26 00:18:43;;;;;;;;;40.00;31.50;;;;;5.32;100.00;102253.34;5048635;28;45340;-72
2023/01/26 00:21:17;;;;;;;;;55.00;36.50;;;;;5.28;100.00;102257.53;5017397;28;45381;-72
2023/01/26 00:23:43;;;;;;;;;39.00;27.50;;;;;5.26;100.00;102235.56;5026703;28;45530;-71
2023/01/26 00:26:10;;;;;;;;;46.25;33.25;;;;;5.28;100.00;102233.97;5034792;28;45920;-71
2023/01/26 00:28:35;;;;;;;;;58.00;37.25;;;;;5.31;100.00;102241.06;5009322;28;45564;-73
2023/01/26 00:31:05;;;;;;;;;60.25;31.50;;;;;5.32;100.00;102251.63;5035317;28;45475;-71
2023/01/26 00:33:31;;;;;;;;;49.25;37.25;;;;;5.33;100.00;102242.97;5037244;28;45479;-72
2023/01/26 00:35:56;;;;;;;;;44.25;38.25;;;;;5.34;100.00;102236.00;5018224;28;45574;-73
2023/01/26 00:38:22;;;;;;;;;54.75;33.25;;;;;5.35;100.00;102232.56;5036434;28;45455;-72
2023/01/26 00:40:47;;;;;;;;;53.25;38.25;;;;;5.34;100.00;102228.16;5036430;28;45333;-71
2023/01/26 00:43:12;;;;;;;;;61.00;36.75;;;;;5.31;100.00;102226.25;5035909;28;55990;-71
2023/01/26 00:45:38;;;;;;;;;43.75;33.00;;;;;5.33;100.00;102223.75;5035826;28;46630;-73
2023/01/26 00:48:03;;;;;;;;;63.25;40.25;;;;;5.35;100.00;102227.34;5035599;28;58684;-71
2023/01/26 00:50:29;;;;;;;;;57.50;37.00;;;;;5.38;100.00;102219.63;5049792;28;45497;-72
2023/01/26 00:52:55;;;;;;;;;59.75;41.25;;;;;5.38;100.00;102206.53;5034981;28;45411;-72
2023/01/26 00:55:21;;;;;;;;;63.00;40.75;;;;;5.41;100.00;102204.09;5050768;28;46465;-73
2023/01/26 00:57:48;;;;;;;;;52.50;33.50;;;;;5.41;100.00;102191.88;5034885;28;45672;-73
2023/01/26 01:00:15;;;;;;;;;53.50;34.00;;;;;5.43;100.00;102199.81;5017970;28;45457;-72
2023/01/26 01:02:42;;;;;;;;;53.75;36.75;;;;;5.42;100.00;102200.66;5018171;28;45666;-72
2023/01/26 01:05:08;;;;;;;;;44.50;30.50;;;;;5.41;100.00;102198.84;5034581;28;46474;-71
2023/01/26 01:07:33;;;;;;;;;54.25;30.25;;;;;5.44;100.00;102202.53;5034615;28;45428;-72
2023/01/26 01:09:59;;;;;;;;;43.75;36.25;;;;;5.43;100.00;102182.41;5033418;28;45257;-73
2023/01/26 01:12:25;;;;;;;;;57.25;34.75;;;;;5.49;100.00;102189.69;5033836;28;45284;-73
2023/01/26 01:14:50;;;;;;;;;43.00;34.25;;;;;5.49;100.00;102181.84;5034492;28;46592;-73
2023/01/26 01:17:16;;;;;;;;;43.50;34.00;;;;;5.53;100.00;102184.69;5017419;28;45512;-73
2023/01/26 01:19:41;;;;;;;;;57.25;40.50;;;;;5.52;100.00;102185.50;5035043;28;45422;-72
2023/01/26 01:22:06;;;;;;;;;50.00;28.25;;;;;5.56;100.00;102183.06;5035409;28;47762;-71
2023/01/26 01:24:34;;;;;;;;;54.50;33.75;;;;;5.54;100.00;102183.00;5035324;28;52756;-71
2023/01/26 01:26:59;;;;;;;;;41.25;23.50;;;;;5.51;100.00;102177.56;5033414;28;45455;-74
2023/01/26 01:29:25;;;;;;;;;52.00;35.75;;;;;5.51;100.00;102186.31;5017385;28;45448;-72
2023/01/26 01:31:50;;;;;;;;;44.50;34.25;;;;;5.45;100.00;102172.91;5034079;28;45601;-73
2023/01/26 01:34:15;;;;;;;;;49.50;38.25;;;;;5.45;100.00;102178.16;5035678;28;49942;-72
2023/01/26 01:36:41;;;;;;;;;47.25;34.50;;;;;5.47;100.00;102175.59;5034388;28;55561;-72
2023/01/26 01:39:06;;;;;;;;;40.25;29.50;;;;;5.48;100.00;102174.78;5035848;28;45258;-72
2023/01/26 01:41:31;;;;;;;;;48.50;29.00;;;;;5.49;100.00;102181.84;5035225;28;45507;-72
2023/01/26 01:44:12;;;;;;;;;47.50;37.75;;;;;5.52;100.00;102181.97;5035099;28;45937;-72
2023/01/26 01:46:39;;;;;;;;;50.25;32.25;;;;;5.52;100.00;102181.97;5034640;28;45534;-72
2023/01/26 01:49:16;;;;;;;;;48.25;36.25;;;;;5.51;100.00;102180.19;5017966;28;45540;-72
2023/01/26 01:52:02;;;;;;;;;57.75;35.50;;;;;5.54;100.00;102185.59;5035459;28;45557;-72
2023/01/26 01:54:38;;;;;;;;;51.50;35.00;;;;;5.51;100.00;102177.56;5024423;28;46626;-72
2023/01/26 01:57:14;;;;;;;;;61.00;34.50;;;;;5.51;100.00;102178.47;5027714;28;45521;-72
2023/01/26 01:59:42;;;;;;;;;46.50;35.50;;;;;5.51;100.00;102169.72;5018422;28;45463;-72
2023/01/26 02:02:08;;;;;;;;;52.75;40.75;;;;;5.53;100.00;102171.56;5027982;28;45402;-73
2023/01/26 02:04:34;;;;;;;;;57.50;35.75;;;;;5.48;100.00;102157.34;5017234;28;53950;-72
2023/01/26 02:06:59;;;;;;;;;44.50;32.00;;;;;5.56;100.00;102176.09;5034499;28;61398;-72
2023/01/26 02:12:16;;;;;;;;;48.25;33.75;;;;;5.57;100.00;102166.50;5019750;28;45645;-73
2023/01/26 02:14:42;;;;;;;;;58.25;33.00;;;;;5.55;100.00;102169.06;5034139;28;46487;-74
2023/01/26 02:17:08;;;;;;;;;48.25;27.50;;;;;5.55;100.00;102168.16;5035410;28;45343;-72
2023/01/26 02:19:45;;;;;;;;;50.25;36.75;;;;;5.53;100.00;102174.19;5050841;28;45441;-72
2023/01/26 02:22:19;;;;;;;;;61.00;36.50;;;;;5.55;100.00;102171.69;5038676;28;45421;-72
2023/01/26 02:24:44;;;;;;;;;52.75;37.25;;;;;5.58;100.00;102179.69;5038233;28;46830;-72
2023/01/26 02:27:10;;;;;;;;;62.25;34.50;;;;;5.58;100.00;102169.22;5002975;28;61775;-73
2023/01/26 02:29:35;;;;;;;;;58.00;39.50;;;;;5.60;100.00;102170.22;5038643;28;49272;-72
2023/01/26 02:32:00;;;;;;;;;44.25;26.75;;;;;5.60;100.00;102170.22;5020080;28;54541;-71
2023/01/26 02:34:27;;;;;;;;;50.50;32.25;;;;;5.60;100.00;102167.59;5038327;28;52347;-73
2023/01/26 02:37:00;;;;;;;;;49.00;38.25;;;;;5.58;100.00;102156.09;5037314;28;45345;-72
2023/01/26 02:39:48;;;;;;;;;40.25;27.50;;;;;5.61;100.00;102164.13;5038372;28;45451;-72
2023/01/26 02:44:57;;;;;;;;;41.75;25.50;;;;;5.60;100.00;102157.09;5035380;28;45369;-74
2023/01/26 02:47:22;;;;;;;;;47.75;35.75;;;;;5.61;100.00;102156.28;5037990;28;56909;-71
2023/01/26 02:49:49;;;;;;;;;61.75;37.25;;;;;5.60;100.00;102149.25;5040285;28;52333;-72
2023/01/26 02:52:16;;;;;;;;;46.75;36.50;;;;;5.61;100.00;102145.81;5039087;28;45538;-73
2023/01/26 02:57:26;;;;;;;;;51.00;31.00;;;;;5.62;100.00;102147.59;5037787;28;45277;-71
2023/01/26 02:59:51;;;;;;;;;42.25;27.75;;;;;5.63;100.00;102148.50;5020941;28;45305;-72
2023/01/26 03:02:17;;;;;;;;;39.00;31.25;;;;;5.59;100.00;102139.56;5020071;28;49284;-73
2023/01/26 03:04:43;;;;;;;;;42.50;35.75;;;;;5.62;100.00;102138.84;5019794;28;46402;-73
2023/01/26 03:07:09;;;;;;;;;54.25;31.00;;;;;5.59;100.00;102139.56;5037427;28;45426;-75
2023/01/26 03:09:35;;;;;;;;;52.50;28.75;;;;;5.63;100.00;102130.16;5038354;28;45500;-72
2023/01/26 03:12:00;;;;;;;;;39.00;25.75;;;;;5.62;100.00;102131.88;5037437;28;45437;-72
2023/01/26 03:14:25;;;;;;;;;34.25;27.00;;;;;5.61;100.00;102127.47;5036408;28;60045;-73
2023/01/26 03:16:51;;;;;;;;;37.50;25.25;;;;;5.65;100.00;102136.38;5037190;28;58498;-72
2023/01/26 03:27:32;;;;;;;;;34.50;23.50;;;;;5.62;100.00;102129.25;5037834;28;45195;-71
2023/01/26 03:29:57;;;;;;;;;32.50;24.00;;;;;5.60;100.00;102130.91;5019886;28;45511;-71
2023/01/26 03:32:23;;;;;;;;;41.25;28.75;;;;;5.58;100.00;102122.03;5019264;28;45463;-74
2023/01/26 03:34:49;;;;;;;;;36.75;19.25;;;;;5.55;100.00;102111.44;5019620;28;47026;-74
2023/01/26 03:37:14;;;;;;;;;41.50;33.50;;;;;5.56;100.00;102114.94;5037404;28;51595;-74
2023/01/26 03:59:11;;;;;;;;;44.25;28.25;;;;;5.62;100.00;102100.44;5015158;28;46291;-73
2023/01/26 04:01:39;;;;;;;;;42.75;30.25;;;;;5.61;100.00;102098.63;5019989;28;45523;-72
2023/01/26 04:09:35;;;;;;;;;40.25;27.00;;;;;5.66;100.00;102109.34;5036625;28;45514;-71
2023/01/26 04:12:02;;;;;;;;;41.50;28.00;;;;;5.66;100.00;102093.63;5018891;28;45517;-71
2023/01/26 04:22:43;;;;;;;;;36.00;28.25;;;;;5.66;100.00;102085.78;5036805;28;45364;-73
2023/01/26 04:25:12;;;;;;;;;33.75;24.75;;;;;5.71;100.00;102092.16;5020795;28;45329;-72
2023/01/26 04:27:38;;;;;;;;;35.00;24.75;;;;;5.70;100.00;102088.63;5019302;28;46524;-72
2023/01/26 04:30:04;;;;;;;;;35.75;27.75;;;;;5.72;100.00;102088.72;5036382;28;45526;-72
2023/01/26 04:32:29;;;;;;;;;34.50;21.25;;;;;5.70;100.00;102088.63;5050888;28;45375;-71
2023/01/26 04:34:54;;;;;;;;;36.75;24.00;;;;;5.72;100.00;102089.59;5036001;28;45618;-73
2023/01/26 04:37:20;;;;;;;;;43.00;25.50;;;;;5.74;100.00;102094.91;5035395;28;57710;-74
2023/01/26 04:39:45;;;;;;;;;43.75;29.75;;;;;5.71;100.00;102093.06;5018617;28;45529;-71
2023/01/26 04:42:11;;;;;;;;;38.25;28.50;;;;;5.72;100.00;102093.94;5036444;28;45462;-72
2023/01/26 04:44:36;;;;;;;;;36.25;24.25;;;;;5.71;100.00;102100.00;5035491;28;45538;-71
2023/01/26 04:47:01;;;;;;;;;35.50;20.75;;;;;5.71;100.00;102089.53;5036102;28;53262;-74
2023/01/26 04:49:27;;;;;;;;;27.00;26.25;;;;;5.75;100.00;102099.31;5035455;28;60922;-73
2023/01/26 04:51:52;;;;;;;;;32.75;21.25;;;;;5.76;100.00;102099.44;5036181;28;45475;-71
2023/01/26 04:54:17;;;;;;;;;35.75;23.25;;;;;5.77;100.00;102097.69;5017489;28;51371;-71
2023/01/26 04:56:43;;;;;;;;;33.25;19.75;;;;;5.78;100.00;102099.50;5018146;28;46331;-72
2023/01/26 04:59:09;;;;;;;;;29.75;20.75;;;;;5.77;100.00;102097.69;5018491;28;45314;-73
2023/01/26 05:01:35;;;;;;;;;31.25;22.50;;;;;5.75;100.00;102104.56;5018419;28;46549;-71
2023/01/26 05:04:01;;;;;;;;;40.25;24.75;;;;;5.69;100.00;102093.78;5018608;28;45397;-70
2023/01/26 05:06:26;;;;;;;;;37.25;24.00;;;;;5.72;100.00;102100.09;5001089;28;48057;-71
2023/01/26 05:08:52;;;;;;;;;24.50;19.50;;;;;5.74;100.00;102094.91;5035969;28;45381;-71
2023/01/26 05:11:17;;;;;;;;;29.25;23.25;;;;;5.74;100.00;102097.53;5035750;28;52280;-72
2023/01/26 05:13:43;;;;;;;;;45.00;31.75;;;;;5.77;100.00;102098.59;5019865;28;45491;-74
2023/01/26 05:16:12;;;;;;;;;40.75;28.25;;;;;5.78;100.00;102097.78;5017647;28;45743;-71
2023/01/26 05:18:37;;;;;;;;;43.00;25.50;;;;;5.77;100.00;102101.22;5036092;28;45588;-71
2023/01/26 05:21:03;;;;;;;;;38.75;25.75;;;;;5.81;100.00;102094.41;5034814;28;52191;-71
2023/01/26 05:23:28;;;;;;;;;40.50;30.75;;;;;5.79;100.00;102094.31;5035909;28;45577;-72
2023/01/26 05:25:54;;;;;;;;;42.50;26.25;;;;;5.82;100.00;102103.19;5035130;28;56273;-71
2023/01/26 05:28:19;;;;;;;;;33.75;25.50;;;;;5.82;100.00;102097.94;5034815;28;57501;-72
2023/01/26 05:30:46;;;;;;;;;42.50;31.25;;;;;5.79;100.00;102096.94;5035419;28;50815;-73
2023/01/26 05:33:11;;;;;;;;;39.00;31.00;;;;;5.75;100.00;102087.16;5016870;28;45544;-72
2023/01/26 05:35:36;;;;;;;;;45.00;32.75;;;;;5.76;100.00;102099.44;5035261;28;55457;-72
2023/01/26 05:38:02;;;;;;;;;38.50;23.75;;;;;5.74;100.00;102098.44;5035938;28;45408;-71
2023/01/26 05:40:27;;;;;;;;;48.00;31.50;;;;;5.74;100.00;102110.63;5033041;28;45419;-72
2023/01/26 05:42:53;;;;;;;;;44.25;34.00;;;;;5.71;100.00;102100.91;5036169;28;45673;-73
2023/01/26 05:45:19;;;;;;;;;41.75;30.75;;;;;5.74;100.00;102108.00;5014996;28;46951;-72
2023/01/26 05:47:45;;;;;;;;;44.75;35.25;;;;;5.74;100.00;102110.63;5020631;28;45419;-72
2023/01/26 05:50:12;;;;;;;;;47.00;32.00;;;;;5.76;100.00;102104.66;4996341;28;45537;-75
2023/01/26 05:52:37;;;;;;;;;39.00;31.00;;;;;5.78;100.00;102102.13;5024443;28;45573;-72
2023/01/26 05:55:04;;;;;;;;;41.25;26.00;;;;;5.75;100.00;102095.00;5030128;28;46716;-72
2023/01/26 05:57:30;;;;;;;;;42.75;28.50;;;;;5.76;100.00;102093.28;5023975;28;45600;-72
2023/01/26 05:59:55;;;;;;;;;37.25;28.00;;;;;5.74;100.00;102095.81;5042452;28;50149;-73
2023/01/26 06:02:21;;;;;;;;;32.25;25.00;;;;;5.73;100.00;102103.59;5038158;28;45454;-72
2023/01/26 06:04:46;;;;;;;;;33.75;24.50;;;;;5.70;100.00;102103.44;5037951;28;46040;-71
2023/01/26 06:07:15;;;;;;;;;42.00;26.75;;;;;5.72;100.00;102110.56;5013677;28;45381;-73
2023/01/26 06:09:40;;;;;;;;;47.50;30.00;;;;;5.72;100.00;102104.44;5028443;28;45298;-73
2023/01/26 06:12:13;;;;;;;;;34.00;27.25;;;;;5.76;100.00;102112.53;5024874;28;45384;-72
2023/01/26 06:14:38;;;;;;;;;47.75;35.50;;;;;5.76;100.00;102109.91;5032312;28;46497;-72
2023/01/26 06:17:03;;;;;;;;;36.25;28.75;;;;;5.76;100.00;102109.91;5040319;28;59530;-73
2023/01/26 06:19:29;;;;;;;;;39.00;30.25;;;;;5.73;100.00;102100.97;5022504;28;53345;-72
2023/01/26 06:21:54;;;;;;;;;38.50;21.50;;;;;5.72;100.00;102100.09;5041139;28;47008;-72
2023/01/26 06:24:19;;;;;;;;;39.25;26.25;;;;;5.70;100.00;102093.88;5032554;28;45706;-74
2023/01/26 06:26:48;;;;;;;;;41.00;27.75;;;;;5.74;100.00;102100.16;5052751;28;53967;-72
2023/01/26 06:29:14;;;;;;;;;37.75;24.75;;;;;5.71;100.00;102093.06;5023012;28;45404;-72
2023/01/26 06:31:40;;;;;;;;;39.00;26.00;;;;;5.75;100.00;102094.09;5021196;28;45825;-73
2023/01/26 06:34:06;;;;;;;;;32.00;25.75;;;;;5.76;100.00;102088.03;5033485;28;46598;-72
2023/01/26 06:36:31;;;;;;;;;33.00;26.25;;;;;5.78;100.00;102092.53;5039135;28;45737;-73
2023/01/26 06:38:56;;;;;;;;;30.25;25.75;;;;;5.76;100.00;102093.28;5019112;28;45702;-74
2023/01/26 06:41:22;;;;;;;;;42.50;19.75;;;;;5.78;100.00;102107.34;5028916;28;53122;-72
2023/01/26 06:43:47;;;;;;;;;47.75;27.50;;;;;5.75;100.00;102113.34;5032834;28;51245;-72
2023/01/26 06:46:13;;;;;;;;;46.50;30.50;;;;;5.74;100.00;102108.91;5039050;28;45466;-72
2023/01/26 06:48:39;;;;;;;;;41.25;28.00;;;;;5.76;100.00;102112.53;5020918;28;45543;-72
2023/01/26 06:51:16;;;;;;;;;34.50;26.50;;;;;5.80;100.00;102113.56;5039358;28;45480;-71
2023/01/26 06:53:46;;;;;;;;;40.25;24.25;;;;;5.78;100.00;102108.25;5035377;28;45561;-71
2023/01/26 06:56:19;;;;;;;;;46.50;31.75;;;;;5.81;100.00;102109.25;5037707;28;45510;-72
2023/01/26 06:58:45;;;;;;;;;47.50;29.75;;;;;5.77;100.00;102106.47;5033876;28;45428;-73
2023/01/26 07:01:23;;;;;;;;;40.00;27.75;;;;;5.78;100.00;102107.34;5048701;28;53761;-71
2023/01/26 07:03:49;;;;;;;;;35.00;21.00;;;;;5.78;100.00;102104.72;5013888;28;45917;-74
2023/01/26 07:06:15;;;;;;;;;42.00;26.50;;;;;5.77;100.00;102105.56;5016592;28;45440;-71
2023/01/26 07:08:40;;;;;;;;;39.75;25.75;;;;;5.80;100.00;102116.19;5033895;28;45957;-70
2023/01/26 07:13:40;;;;;;;;;40.25;23.00;;;;;5.83;100.00;102118.97;5064000;22;45416;-70
2023/01/26 07:16:09;;;;;;;;;40.50;26.25;;;;;5.86;100.00;102119.16;5033844;28;53624;-70
2023/01/26 07:18:35;;;;;;;;;45.75;26.25;;;;;5.84;100.00;102117.25;5043468;28;45480;-71
2023/01/26 07:21:06;;;;;;;;;39.50;25.50;;;;;5.87;100.00;102122.66;5053420;28;45509;-71
2023/01/26 07:23:31;;;;;;;;;53.75;35.75;;;;;5.90;100.00;102125.41;5056177;28;45756;-71
2023/01/26 07:25:58;;;;;;;;;45.50;28.50;;;;;5.88;100.00;102124.44;5033566;28;52063;-72
2023/01/26 07:28:24;;;;;;;;;42.75;30.75;;;;;5.90;100.00;102120.19;5055822;28;45389;-70
2023/01/26 07:30:50;;;;;;;;;42.50;30.25;;;;;5.89;100.00;102128.88;5038802;28;45632;-70
2023/01/26 07:33:15;;;;;;;;;37.25;28.75;;;;;5.87;100.00;102120.94;5039000;28;48383;-72
2023/01/26 07:35:41;;;;;;;;;35.50;25.25;;;;;5.84;100.00;102115.53;5051265;28;59907;-76
2023/01/26 07:38:06;;;;;;;;;38.25;26.75;;;;;5.84;100.00;102118.16;5046525;28;50966;-71
2023/01/26 07:40:33;;;;;;;;;45.50;28.00;;;;;5.78;100.00;102118.72;5046957;28;45375;-72
2023/01/26 07:42:59;;;;;;;;;26.25;20.25;;;;;5.77;100.00;102124.81;5034653;28;45725;-74
2023/01/26 07:45:24;;;;;;;;;41.25;28.50;;;;;5.75;100.00;102128.16;5039777;28;45506;-73
2023/01/26 07:47:52;;;;;;;;;34.25;23.00;;;;;5.79;100.00;102136.25;5039505;28;45537;-74
2023/01/26 07:50:19;;;;;;;;;35.00;25.75;;;;;5.78;100.00;102130.94;5049960;28;45451;-70
2023/01/26 07:52:45;;;;;;;;;27.25;19.75;;;;;5.81;100.00;102128.50;5055271;28;46211;-71
2023/01/26 07:55:11;;;;;;;;;35.25;27.75;;;;;5.84;100.00;102118.16;5053545;28;45387;-70
2023/01/26 07:57:36;;;;;;;;;19.25;19.25;;;;;5.86;100.00;102137.50;5055221;28;45477;-72
2023/01/26 08:00:02;;;;;;;;;31.75;24.25;;;;;5.84;100.00;102132.97;5052896;28;45614;-71
2023/01/26 08:02:28;;;;;;;;;41.75;27.75;;;;;5.84;100.00;102133.88;5054229;28;45889;-71
2023/01/26 08:04:53;;;;;;;;;45.75;29.25;;;;;5.83;100.00;102133.81;5053556;28;50464;-71
2023/01/26 08:07:18;;;;;;;;;42.50;29.25;;;;;5.89;100.00;102144.59;5054509;28;46786;-71
2023/01/26 08:09:44;;;;;;;;;33.50;23.25;;;;;5.92;100.00;102145.69;5038472;28;45510;-72
2023/01/26 08:12:09;;;;;;;;;44.25;23.75;;;;;5.94;100.00;102154.53;5055796;28;59998;-70
2023/01/26 08:14:34;;;;;;;;;39.50;20.25;;;;;5.96;100.00;102149.34;5038333;28;55529;-71
2023/01/26 08:17:00;;;;;;;;;38.75;25.25;;;;;6.01;100.00;102155.72;5056853;28;45438;-70
2023/01/26 08:19:25;;;;;;;;;40.00;27.75;;;;;6.02;100.00;102158.44;5028057;28;46231;-72
2023/01/26 08:21:52;;;;;;;;;38.25;27.25;;;;;6.05;100.00;102160.31;5054969;28;54041;-71
2023/01/26 08:24:17;;;;;;;;;48.50;32.00;;;;;6.06;100.00;102169.97;5055341;28;45436;-71
2023/01/26 08:26:42;;;;;;;;;36.00;25.75;;;;;6.07;100.00;102168.25;5056443;28;45450;-71
2023/01/26 08:29:08;;;;;;;;;34.75;28.25;;;;;6.11;100.00;102163.25;5055478;28;49973;-72
2023/01/26 08:31:33;;;;;;;;;38.25;28.50;;;;;6.12;100.00;102159.78;5061995;28;46589;-71
2023/01/26 08:33:59;;;;;;;;;41.50;29.50;;;;;6.20;100.00;102175.94;5036466;28;45404;-70
2023/01/26 08:36:24;;;;;;;;;47.25;31.50;;;;;6.21;100.00;102167.22;5069778;28;45296;-71
2023/01/26 08:38:50;;;;;;;;;50.25;32.50;;;;;6.25;100.00;102170.09;5069242;28;52352;-72
2023/01/26 08:41:17;;;;;;;;;42.00;28.50;;;;;6.28;100.00;102177.19;5057563;28;46232;-71
2023/01/26 08:43:42;;;;;;;;;46.75;33.00;;;;;6.31;100.00;102179.97;5057720;28;45285;-71
2023/01/26 08:46:07;;;;;;;;;41.75;28.25;;;;;6.37;100.00;102195.13;5056597;28;51995;-71
2023/01/26 08:48:33;;;;;;;;;32.25;25.50;;;;;6.38;100.00;102187.31;5039220;28;51220;-70
2023/01/26 08:51:00;;;;;;;;;23.50;17.00;;;;;6.40;100.00;102187.41;5056937;28;45649;-70
2023/01/26 08:53:26;;;;;;;;;39.25;26.00;;;;;6.42;100.00;102197.16;5057196;28;45342;-71
2023/01/26 08:55:51;;;;;;;;;30.25;25.50;;;;;6.43;100.00;102195.41;5039048;28;45383;-71
2023/01/26 08:58:17;;;;;;;;;50.00;30.75;;;;;6.41;100.00;102197.97;5038592;28;49026;-70
2023/01/26 09:00:42;;;;;;;;;31.25;25.50;;;;;6.43;100.00;102193.69;5039470;28;45585;-72
2023/01/26 09:03:08;;;;;;;;;43.00;34.50;;;;;6.44;100.00;102200.75;5037389;28;47191;-72
2023/01/26 09:05:38;;;;;;;;;34.25;26.75;;;;;6.45;100.00;102199.03;5057127;28;45430;-72
2023/01/26 09:08:05;;;;;;;;;45.25;31.75;;;;;6.44;100.00;102194.59;5056686;28;45283;-71
2023/01/26 09:10:30;;;;;;;;;36.25;28.00;;;;;6.44;100.00;102194.59;5057354;28;46479;-71
2023/01/26 09:12:56;;;;;;;;;49.50;32.50;;;;;6.46;100.00;102195.59;5065214;28;45257;-71
2023/01/26 09:15:22;;;;;;;;;41.25;31.25;;;;;6.49;100.00;102203.59;5035603;28;45517;-71
2023/01/26 09:17:48;;;;;;;;;37.75;28.25;;;;;6.48;100.00;102202.69;5036919;28;45279;-71
2023/01/26 09:20:13;;;;;;;;;45.50;29.50;;;;;6.52;100.00;102209.91;5034804;28;46978;-70
2023/01/26 09:22:39;;;;;;;;;47.25;32.00;;;;;6.54;100.00;102207.34;5036888;28;45138;-71
2023/01/26 09:25:05;;;;;;;;;41.75;30.00;;;;;6.54;100.00;102207.34;5035448;28;45319;-71
2023/01/26 09:27:30;;;;;;;;;38.50;25.00;;;;;6.54;100.00;102215.22;5031590;28;45507;-70
2023/01/26 09:29:56;;;;;;;;;39.50;26.00;;;;;6.57;100.00;102218.00;5035376;28;57557;-71
2023/01/26 09:32:21;;;;;;;;;43.25;30.00;;;;;6.58;100.00;102214.56;5036357;28;45418;-71
2023/01/26 09:34:47;;;;;;;;;44.25;26.50;;;;;6.62;100.00;102215.63;5031099;28;45453;-71
2023/01/26 09:37:12;;;;;;;;;37.00;27.25;;;;;6.59;100.00;102216.34;5034632;28;45384;-71
2023/01/26 09:39:38;;;;;;;;;39.00;31.75;;;;;6.64;100.00;102220.09;5036650;28;45665;-70
2023/01/26 09:42:12;;;;;;;;;36.50;29.75;;;;;6.64;100.00;102216.56;5036046;28;45388;-71
2023/01/26 09:45:12;;;;;;;;;38.25;27.00;;;;;6.62;100.00;102227.00;5026814;28;45321;-71
2023/01/26 09:47:44;;;;;;;;;45.00;28.75;;;;;6.61;100.00;102227.84;5029845;28;45631;-71
2023/01/26 09:50:17;;;;;;;;;39.75;25.00;;;;;6.65;100.00;102234.13;5036300;28;46483;-71
2023/01/26 09:52:59;;;;;;;;;39.75;31.75;;;;;6.72;100.00;102225.75;5034669;28;45347;-70
2023/01/26 09:55:24;;;;;;;;;50.50;31.00;;;;;6.79;100.00;102231.34;5035227;28;45341;-70
2023/01/26 09:57:58;;;;;;;;;36.75;29.00;;;;;6.87;100.00;102226.50;5034772;28;45343;-70
2023/01/26 10:00:24;;;;;;;;;40.50;25.00;;;;;6.95;100.00;102230.38;5035590;28;46598;-71
2023/01/26 10:03:24;;;;;;;;;40.00;27.50;;;;;6.98;100.00;102225.28;5034814;28;45349;-71
2023/01/26 10:06:12;;;;;;;;;30.50;18.75;;;;;6.99;100.00;102234.06;5017938;28;45551;-71
2023/01/26 10:08:39;;;;;;;;;39.25;23.25;;;;;6.97;100.00;102227.81;5033361;28;45566;-71
2023/01/26 10:11:16;;;;;;;;;39.00;30.75;;;;;6.99;100.00;102223.56;5035598;28;46666;-71
2023/01/26 10:13:47;;;;;;;;;41.50;28.00;;;;;7.06;100.00;102228.25;5013957;28;45458;-71
2023/01/26 10:16:13;;;;;;;;;38.50;27.50;;;;;7.08;100.00;102229.22;5015031;28;45397;-71
2023/01/26 10:19:01;;;;;;;;;35.25;28.25;;;;;7.12;100.00;102231.16;5014880;28;45550;-70
2023/01/26 10:21:32;;;;;;;;;44.50;31.25;;;;;7.18;100.00;102228.81;5014397;28;46524;-70
2023/01/26 10:24:00;;;;;;;;;38.50;26.75;;;;;7.20;100.00;102237.69;5015872;28;45337;-71
2023/01/26 10:26:29;;;;;;;;;35.00;26.00;;;;;7.21;100.00;102228.97;5013024;28;45463;-71
2023/01/26 10:28:54;;;;;;;;;37.25;28.75;;;;;7.28;100.00;102232.78;5026886;28;45499;-70
2023/01/26 10:31:22;;;;;;;;;32.00;27.25;;;;;7.32;100.00;102229.47;5032672;28;45461;-70
2023/01/26 10:34:01;;;;;;;;;28.00;22.00;;;;;7.39;100.00;102236.81;5002228;28;45266;-70
2023/01/26 10:36:30;;;;;;;;;40.25;30.50;;;;;7.40;100.00;102225.47;5016219;28;45430;-70
2023/01/26 10:39:12;;;;;;;;;41.75;32.75;;;;;7.41;100.00;102232.56;5024453;28;45365;-70
2023/01/26 10:41:38;;;;;;;;;36.00;26.25;;;;;7.43;100.00;102229.97;5018643;28;46974;-69
2023/01/26 10:44:12;;;;;;;;;48.75;40.50;;;;;7.41;100.00;102229.03;5018748;28;45369;-70
2023/01/26 10:46:40;;;;;;;;;38.75;34.25;;;;;7.41;100.00;102226.41;5017203;28;45377;-72
2023/01/26 10:49:08;;;;;;;;;34.50;28.25;;;;;7.40;100.00;102219.31;5017829;28;45551;-69
2023/01/26 10:51:38;;;;;;;;;43.75;31.75;;;;;7.36;100.00;102218.28;5019141;28;46198;-69
2023/01/26 10:54:24;;;;;;;;;31.25;28.75;;;;;7.41;100.00;102221.16;5018488;28;45370;-71
2023/01/26 10:57:17;;;;;;;;;30.25;23.75;;;;;7.40;100.00;102222.84;5001560;28;45253;-75
2023/01/26 10:59:44;;;;;;;;;25.50;19.50;;;;;7.39;100.00;102222.78;5015565;28;47082;-70
2023/01/26 11:02:10;;;;;;;;;29.25;25.00;;;;;7.41;100.00;102206.28;5016950;28;46166;-71
2023/01/26 11:04:35;;;;;;;;;30.25;24.00;;;;;7.41;100.00;102202.75;5014294;28;45473;-71
2023/01/26 11:07:39;;;;;;;;;22.75;17.75;;;;;7.49;100.00;102211.88;5017279;28;45411;-70
2023/01/26 11:10:32;;;;;;;;;27.50;19.25;;;;;7.52;100.00;102206.75;5003400;28;45504;-70
2023/01/26 11:13:07;;;;;;;;;34.00;26.00;;;;;7.53;100.00;102203.28;5039523;28;47180;-71
2023/01/26 11:15:39;;;;;;;;;39.50;30.00;;;;;7.51;100.00;102205.88;5037672;28;45459;-70
2023/01/26 11:18:15;;;;;;;;;36.00;26.00;;;;;7.51;100.00;102203.22;5058295;28;45533;-71
2023/01/26 11:21:15;;;;;;;;;37.75;31.25;;;;;7.52;100.00;102204.13;5057380;28;45474;-70
2023/01/26 11:24:03;;;;;;;;;39.50;26.75;;;;;7.50;100.00;102182.13;5036160;28;47739;-71
2023/01/26 11:26:42;;;;;;;;;37.25;30.50;;;;;7.62;100.00;102193.22;5039449;28;46772;-73
2023/01/26 11:29:10;;;;;;;;;30.25;25.50;;;;;7.67;100.00;102196.94;5058282;28;45454;-73
2023/01/26 11:31:53;;;;;;;;;36.75;26.75;;;;;7.71;100.00;102198.84;5057820;28;45551;-70
2023/01/26 11:34:37;;;;;;;;;33.75;26.00;;;;;7.70;100.00;102191.78;5057509;28;46856;-72
2023/01/26 11:37:08;;;;;;;;;43.50;29.25;;;;;7.69;100.00;102187.38;5039603;28;46376;-71
2023/01/26 11:39:40;;;;;;;;;39.75;29.50;;;;;7.70;100.00;102190.91;5059356;28;45320;-73
2023/01/26 11:42:16;;;;;;;;;37.25;23.50;;;;;7.70;100.00;102188.28;5040501;28;45228;-71
2023/01/26 11:44:47;;;;;;;;;35.00;25.00;;;;;7.70;100.00;102185.66;5066446;28;45955;-71
2023/01/26 11:47:40;;;;;;;;;33.75;23.75;;;;;7.70;100.00;102188.28;5056234;28;45510;-71
2023/01/26 11:50:20;;;;;;;;;30.50;23.25;;;;;7.68;100.00;102197.84;5073885;28;45479;-73
2023/01/26 11:53:13;;;;;;;;;39.50;29.50;;;;;7.66;100.00;102196.84;5037115;28;45620;-71
2023/01/26 11:55:47;;;;;;;;;31.00;24.50;;;;;7.66;100.00;102197.75;5057523;28;46738;-72
2023/01/26 11:58:24;;;;;;;;;32.50;26.00;;;;;7.64;100.00;102198.53;5054085;28;45323;-73
2023/01/26 12:00:58;;;;;;;;;23.50;21.75;;;;;7.60;100.00;102201.00;5057478;28;45443;-72
2023/01/26 12:03:32;;;;;;;;;31.00;19.25;;;;;7.55;100.00;102192.00;5039554;28;45462;-72
2023/01/26 12:06:01;;;;;;;;;29.00;19.00;;;;;7.50;100.00;102196.16;5057205;28;46117;-71
2023/01/26 12:08:37;;;;;;;;;32.25;22.00;;;;;7.48;100.00;102186.41;5073151;28;45229;-71